Time;durP1;ratioP1;P1;durP2;ratioP2;P2;SDS_P1;SDS_P2;PMS_P1;PMS_P2;Temp;Humidity;BMP_temperature;BMP_pressure;BME280_temperature;BME280_humidity;BME280_pressure;Samples;Min_cycle;Max_cycle;Signal;HPM_P1;HPM_P2
2023/01/15 06:33:36;;;;;;;20.30;13.70;;;;;;;-0.07;89.95;99836.00;104974;1283;612348;-40
2023/01/15 06:36:04;;;;;;;20.10;13.50;;;;;;;0.44;87.44;99835.17;106441;1266;203689;-40
2023/01/15 06:38:32;;;;;;;22.60;13.30;;;;;;;0.39;87.85;99835.95;106629;1266;60047;-40
2023/01/15 06:41:00;;;;;;;21.50;13.00;;;;;;;0.38;87.95;99841.31;106697;1265;73853;-40
2023/01/15 06:48:59;;;;;;;21.50;12.50;;;;;;;0.53;86.59;99833.98;106587;1266;60618;-40
2023/01/15 06:51:26;;;;;;;23.00;13.60;;;;;;;0.50;86.31;99833.30;106610;1266;62323;-40
2023/01/15 06:53:56;;;;;;;;;;;;;;;0.50;86.09;99835.06;106660;1266;74251;-40
2023/01/15 06:56:23;;;;;;;20.00;12.70;;;;;;;0.49;85.28;99839.45;106686;1266;69071;-40
2023/01/15 06:58:51;;;;;;;20.90;12.80;;;;;;;0.53;84.65;99840.48;106700;1266;74022;-40
2023/01/15 07:01:18;;;;;;;22.20;13.40;;;;;;;0.52;83.63;99839.48;106642;1266;59761;-40
2023/01/15 07:03:45;;;;;;;22.00;13.10;;;;;;;0.45;83.89;99840.13;106625;1266;61749;-40
2023/01/15 07:06:13;;;;;;;23.60;13.70;;;;;;;0.40;83.75;99841.08;106735;1266;74761;-40
2023/01/15 07:08:40;;;;;;;21.80;13.80;;;;;;;0.37;83.64;99842.50;106658;1266;68791;-40
2023/01/15 07:11:08;;;;;;;20.30;12.00;;;;;;;0.40;83.70;99842.67;106611;1266;74022;-40
2023/01/15 07:13:35;;;;;;;19.40;12.40;;;;;;;0.50;82.97;99845.11;106654;1266;60392;-40
2023/01/15 07:16:03;;;;;;;20.10;12.80;;;;;;;0.51;82.65;99844.13;106704;1266;60815;-40
2023/01/15 07:18:31;;;;;;;18.70;11.60;;;;;;;0.50;82.86;99842.16;106785;1266;74397;-40
2023/01/15 07:20:58;;;;;;;20.70;12.70;;;;;;;0.48;82.62;99838.07;106789;1266;68998;-40
2023/01/15 07:23:26;;;;;;;22.80;12.50;;;;;;;0.46;82.71;99843.86;106695;1266;74995;-40
2023/01/15 07:25:53;;;;;;;20.00;12.20;;;;;;;0.51;82.79;99841.98;106632;1265;61106;-40
2023/01/15 07:28:21;;;;;;;18.50;11.10;;;;;;;0.61;82.36;99840.02;106628;1269;60355;-40
2023/01/15 07:30:48;;;;;;;17.70;11.10;;;;;;;0.64;81.98;99840.11;106752;1266;73122;-39
2023/01/15 07:33:15;;;;;;;21.30;12.10;;;;;;;0.54;82.01;99828.21;106711;1265;69902;-40
2023/01/15 07:35:43;;;;;;;19.10;12.20;;;;;;;0.63;82.09;99841.55;106690;1265;74095;-40
2023/01/15 07:38:10;;;;;;;20.00;11.90;;;;;;;0.63;81.88;99847.20;106615;1266;60615;-40
2023/01/15 07:40:37;;;;;;;17.20;11.10;;;;;;;0.66;81.60;99847.39;106702;1266;59738;-40
2023/01/15 12:16:25;;;;;;;25.90;16.40;;;;;;;1.08;83.03;99631.27;104970;1285;612714;-39
2023/01/15 12:19:27;;;;;;;24.60;15.50;;;;;;;1.44;81.13;99629.75;106404;1266;230169;-39
2023/01/15 12:22:40;;;;;;;22.50;13.70;;;;;;;1.32;80.61;99625.23;107326;1259;60142;-39
2023/01/15 12:25:26;;;;;;;21.60;12.80;;;;;;;1.30;80.12;99617.63;106998;1254;73644;-39
2023/01/15 12:28:11;;;;;;;19.50;12.90;;;;;;;1.26;79.83;99613.35;107431;1254;70721;-39
2023/01/15 12:31:10;;;;;;;21.80;13.10;;;;;;;1.17;79.21;99604.16;107482;1254;71894;-39
2023/01/15 12:34:02;;;;;;;22.80;13.40;;;;;;;1.06;79.43;99591.90;107357;1254;61815;-39
2023/01/15 12:36:49;;;;;;;19.40;11.60;;;;;;;0.98;79.76;99594.15;107451;1254;59131;-39
2023/01/15 12:39:18;;;;;;;15.60;10.20;;;;;;;0.99;79.40;99596.33;107439;1254;73633;-39
2023/01/15 12:45:27;;;;;;;21.00;11.70;;;;;;;1.00;79.54;99584.73;107421;1256;72584;-39
2023/01/15 12:47:56;;;;;;;18.10;11.30;;;;;;;1.01;79.56;99575.06;107070;1260;62029;-39
2023/01/15 12:50:38;;;;;;;16.30;10.60;;;;;;;0.98;79.89;99576.55;107279;1254;60536;-39
2023/01/15 12:53:24;;;;;;;15.50;10.20;;;;;;;1.05;79.71;99570.65;107331;1254;73155;-39
2023/01/15 12:56:22;;;;;;;14.60;9.80;;;;;;;1.14;79.47;99565.40;107333;1254;70515;-39
2023/01/15 12:59:06;;;;;;;15.90;10.40;;;;;;;1.15;78.95;99561.48;107134;1256;73278;-40
2023/01/15 13:01:39;;;;;;;15.90;10.50;;;;;;;1.14;79.12;99554.65;107219;1256;59597;-40
2023/01/15 13:04:29;;;;;;;15.40;10.40;;;;;;;1.10;78.55;99557.17;107432;1254;61722;-40
2023/01/15 13:07:01;;;;;;;13.60;9.00;;;;;;;1.04;78.46;99550.39;107450;1254;72129;-40
2023/01/15 13:09:34;;;;;;;13.20;8.90;;;;;;;1.03;78.42;99542.77;107395;1254;70575;-40
2023/01/15 13:12:01;;;;;;;13.40;8.40;;;;;;;1.08;78.58;99536.81;107414;1254;73337;-40
2023/01/15 13:14:29;;;;;;;13.90;9.00;;;;;;;1.08;78.44;99535.10;107436;1255;59622;-40
2023/01/15 13:17:13;;;;;;;12.50;8.50;;;;;;;1.07;78.44;99540.73;107348;1254;59704;-39
2023/01/15 13:19:59;;;;;;;12.40;8.80;;;;;;;1.02;78.27;99543.54;107287;1255;75089;-40
2023/01/15 13:22:27;;;;;;;10.30;7.30;;;;;;;0.90;78.30;99543.09;107389;1254;68216;-39
2023/01/15 13:25:00;;;;;;;10.00;7.20;;;;;;;0.88;78.70;99545.03;107429;1254;74978;-40
2023/01/15 13:27:51;;;;;;;11.70;7.20;;;;;;;0.92;78.41;99554.91;107434;1254;61726;-41
2023/01/15 13:30:42;;;;;;;11.40;7.70;;;;;;;0.86;78.69;99563.67;107452;1254;61464;-40
2023/01/15 13:33:31;;;;;;;11.80;7.90;;;;;;;0.79;78.93;99566.10;107444;1254;73045;-40
2023/01/15 13:36:17;;;;;;;12.50;8.30;;;;;;;0.71;79.12;99562.38;107456;1256;69867;-40
2023/01/15 13:38:48;;;;;;;11.10;7.70;;;;;;;0.67;79.64;99560.52;107424;1258;74237;-40
2023/01/15 13:42:30;;;;;;;11.80;7.60;;;;;;;0.69;79.72;99556.64;107417;1254;62514;-40
2023/01/15 13:44:05;;;;;;;12.30;8.20;;;;;;;0.80;79.86;99556.86;107401;1254;61808;-40
2023/01/15 13:46:32;;;;;;;13.50;8.70;;;;;;;0.84;80.03;99559.13;107448;1258;74397;-39
2023/01/15 13:48:59;;;;;;;16.00;10.00;;;;;;;0.87;80.03;99551.08;107393;1254;70148;-38
2023/01/15 13:51:38;;;;;;;17.40;10.50;;;;;;;0.87;79.77;99544.30;107463;1254;74532;-39
2023/01/15 13:54:11;;;;;;;17.10;10.00;;;;;;;0.82;79.93;99537.74;107357;1256;61995;-40
2023/01/15 13:56:38;;;;;;;15.20;9.90;;;;;;;0.83;79.90;99532.14;107141;1254;60497;-40
2023/01/15 13:59:26;;;;;;;15.80;10.10;;;;;;;0.82;79.78;99524.83;107104;1254;74025;-40
2023/01/15 14:01:53;;;;;;;15.30;10.00;;;;;;;0.75;80.12;99528.80;107327;1254;70139;-41
2023/01/15 14:04:35;;;;;;;16.30;10.70;;;;;;;0.66;80.62;99532.30;107421;1254;73522;-39
2023/01/15 14:07:02;;;;;;;17.00;10.80;;;;;;;0.61;80.85;99534.14;107354;1257;59424;-39
2023/01/15 14:09:33;;;;;;;13.40;9.00;;;;;;;0.52;81.16;99525.62;107302;1254;61382;-40
2023/01/15 14:12:06;;;;;;;16.90;10.70;;;;;;;0.53;81.44;99524.49;107311;1257;73175;-40
2023/01/15 14:14:39;;;;;;;19.90;11.70;;;;;;;0.53;81.33;99523.32;107384;1254;71296;-40
2023/01/15 14:17:29;;;;;;;17.80;11.10;;;;;;;0.50;81.67;99515.48;107426;1254;74188;-39
2023/01/15 14:20:18;;;;;;;21.10;12.20;;;;;;;0.47;81.80;99505.48;107348;1254;59756;-39
2023/01/15 14:23:00;;;;;;;17.90;11.00;;;;;;;0.45;82.13;99502.03;107451;1254;60720;-39
2023/01/15 14:25:46;;;;;;;16.00;11.00;;;;;;;0.49;82.17;99502.03;107426;1254;74245;-39
2023/01/15 14:28:39;;;;;;;18.50;11.40;;;;;;;0.55;82.04;99505.10;107399;1254;69839;-40
2023/01/15 14:31:09;;;;;;;19.20;11.80;;;;;;;0.54;82.21;99506.59;107379;1256;74993;-40
2023/01/15 14:33:46;;;;;;;16.90;11.60;;;;;;;0.53;82.23;99504.42;107389;1255;59664;-41
2023/01/15 14:36:27;;;;;;;19.40;11.40;;;;;;;0.50;81.86;99500.64;107473;1258;59707;-38
2023/01/15 14:38:59;;;;;;;17.30;11.40;;;;;;;0.44;81.92;99507.33;107356;1254;73318;-39
2023/01/15 14:41:29;;;;;;;20.30;11.90;;;;;;;0.48;81.93;99506.80;107383;1256;70626;-39
2023/01/15 14:43:57;;;;;;;23.70;13.30;;;;;;;0.48;81.83;99502.48;107404;1254;74878;-39
2023/01/15 14:46:32;;;;;;;20.60;13.40;;;;;;;0.41;82.04;99499.43;107363;1254;61926;-40
2023/01/15 14:49:00;;;;;;;22.60;13.20;;;;;;;0.34;82.18;99501.34;107305;1254;59792;-39
2023/01/15 14:51:31;;;;;;;20.40;13.20;;;;;;;0.22;82.48;99498.26;107292;1254;74444;-40
2023/01/15 14:54:09;;;;;;;20.80;13.00;;;;;;;0.20;82.53;99495.63;107329;1254;68862;-39
2023/01/15 14:56:41;;;;;;;21.50;12.50;;;;;;;0.23;82.75;99495.20;107344;1256;74431;-40
2023/01/15 14:59:14;;;;;;;22.10;13.20;;;;;;;0.24;82.78;99495.83;107294;1254;61495;-39
2023/01/15 15:01:48;;;;;;;19.60;12.60;;;;;;;0.20;83.13;99490.23;107294;1254;61107;-39
2023/01/15 15:04:27;;;;;;;20.80;12.60;;;;;;;0.19;82.89;99498.30;107420;1254;74751;-39
2023/01/15 15:06:58;;;;;;;17.40;11.00;;;;;;;0.20;82.94;99495.79;107350;1254;68856;-39
2023/01/15 15:09:32;;;;;;;17.40;11.40;;;;;;;0.24;82.85;99497.75;107347;1254;72542;-40
2023/01/15 15:12:39;;;;;;;18.20;10.90;;;;;;;0.24;82.96;99499.67;107345;1254;59470;-39
2023/01/15 15:15:17;;;;;;;18.60;11.10;;;;;;;0.20;83.17;99509.74;107398;1258;61360;-39
2023/01/15 15:17:49;;;;;;;16.70;10.50;;;;;;;0.06;83.35;99501.09;107397;1254;74057;-39
2023/01/15 15:20:58;;;;;;;15.20;10.00;;;;;;;0.14;83.58;99504.02;107356;1254;67935;-40
2023/01/15 15:24:02;;;;;;;18.30;10.90;;;;;;;0.22;83.17;99505.07;107017;1260;73313;-40
2023/01/15 15:26:32;;;;;;;15.40;9.30;;;;;;;0.17;83.40;99505.42;107022;1260;61733;-40
2023/01/15 15:29:10;;;;;;;15.20;9.90;;;;;;;0.13;83.71;99508.46;107320;1254;61447;-40
2023/01/15 15:31:55;;;;;;;14.40;9.30;;;;;;;0.12;83.74;99504.04;107304;1254;74400;-40
2023/01/15 15:34:39;;;;;;;12.20;8.30;;;;;;;0.12;83.69;99496.59;107394;1254;70604;-40
2023/01/15 15:37:25;;;;;;;13.40;8.70;;;;;;;0.14;83.55;99493.66;107311;1258;73516;-40
2023/01/15 15:39:57;;;;;;;14.30;9.40;;;;;;;0.13;83.94;99498.64;107398;1254;60993;-40
2023/01/15 15:51:26;;;;;;;9.80;6.50;;;;;;;0.14;83.39;99493.10;107360;1257;74100;-40
2023/01/15 15:54:03;;;;;;;9.80;6.70;;;;;;;0.07;83.39;99490.90;107464;1254;61463;-40
2023/01/15 22:22:07;;;;;;;19.70;12.40;;;;;;;-1.22;90.40;99290.79;105151;1283;613594;-39
2023/01/15 22:24:35;;;;;;;18.90;12.50;;;;;;;-0.82;87.32;99288.68;106485;1266;174365;-39
2023/01/15 22:27:05;;;;;;;19.50;11.10;;;;;;;-0.92;87.54;99292.33;106731;1266;59101;-38
2023/01/15 22:29:37;;;;;;;16.50;11.00;;;;;;;-0.98;86.49;99296.93;106756;1266;72072;-39
2023/01/15 22:32:08;;;;;;;15.40;10.50;;;;;;;-0.96;86.02;99296.54;106593;1266;69044;-38
2023/01/15 22:34:36;;;;;;;15.90;10.10;;;;;;;-0.99;85.47;99295.77;106685;1268;70906;-38
2023/01/15 22:37:03;;;;;;;16.50;10.90;;;;;;;-1.05;85.05;99294.09;106716;1265;61051;-39
2023/01/15 22:39:30;;;;;;;16.40;10.40;;;;;;;-1.13;84.34;99292.90;106729;1266;60695;-39
2023/01/15 22:44:44;;;;;;;17.60;10.60;;;;;;;-1.16;84.25;99288.67;106707;1266;69343;-38
2023/01/15 22:47:11;;;;;;;19.60;10.60;;;;;;;-1.19;84.29;99281.01;106721;1267;72040;-38
2023/01/15 22:49:38;;;;;;;16.70;10.70;;;;;;;-1.25;84.39;99279.80;106886;1268;59545;-38
2023/01/15 22:52:05;;;;;;;18.50;11.20;;;;;;;-1.34;84.60;99269.95;106855;1263;60249;-38
2023/01/15 22:54:32;;;;;;;17.40;9.90;;;;;;;-1.32;84.66;99274.23;106859;1262;74384;-38
2023/01/15 22:57:00;;;;;;;19.60;11.50;;;;;;;-1.27;84.44;99269.60;106891;1264;70280;-38
2023/01/15 22:59:27;;;;;;;18.20;11.30;;;;;;;-1.28;84.45;99266.42;106835;1263;74576;-38
2023/01/15 23:01:54;;;;;;;18.90;11.10;;;;;;;-1.34;84.62;99261.97;106762;1263;60975;-38
2023/01/15 23:04:22;;;;;;;19.80;11.40;;;;;;;-1.39;84.93;99259.64;106956;1263;61880;-38
2023/01/15 23:06:50;;;;;;;20.10;11.00;;;;;;;-1.39;85.14;99264.01;106792;1262;75102;-38
2023/01/15 23:09:18;;;;;;;21.70;11.30;;;;;;;-1.36;85.07;99261.46;106899;1264;70384;-38
2023/01/15 23:11:45;;;;;;;22.70;12.00;;;;;;;-1.36;85.26;99258.43;106165;1266;1002967;-38
2023/01/15 23:14:16;;;;;;;20.40;12.50;;;;;;;-1.37;85.73;99256.75;106860;1264;59871;-38
2023/01/15 23:16:43;;;;;;;22.00;12.90;;;;;;;-1.38;85.74;99250.69;106849;1266;60198;-38
2023/01/15 23:19:11;;;;;;;21.30;11.90;;;;;;;-1.36;85.77;99243.91;106875;1262;74302;-38
2023/01/15 23:21:38;;;;;;;21.90;13.00;;;;;;;-1.30;85.59;99241.51;106888;1267;69863;-38
2023/01/15 23:24:05;;;;;;;24.00;13.30;;;;;;;-1.29;85.79;99233.94;106861;1263;72489;-38
2023/01/15 23:26:33;;;;;;;24.50;13.60;;;;;;;-1.34;85.84;99238.52;106817;1266;60230;-39
2023/01/15 23:29:01;;;;;;;23.40;12.80;;;;;;;-1.41;86.25;99233.73;106871;1266;59719;-39
2023/01/15 23:31:28;;;;;;;21.00;12.20;;;;;;;-1.41;86.36;99237.44;106806;1262;74006;-39
2023/01/15 23:33:55;;;;;;;25.10;12.90;;;;;;;-1.37;86.42;99228.45;106707;1263;71113;-38
2023/01/15 23:36:22;;;;;;;25.40;13.60;;;;;;;-1.37;86.36;99220.48;106751;1265;73129;-39
2023/01/15 23:38:50;;;;;;;27.60;14.80;;;;;;;-1.38;86.57;99215.17;106787;1263;60686;-38
2023/01/15 23:46:31;;;;;;;26.70;14.50;;;;;;;-1.37;86.72;99214.41;106741;1262;60510;-39
2023/01/15 23:47:05;;;;;;;22.70;13.40;;;;;;;-1.23;86.55;99219.30;106768;1267;70004;-39
2023/01/15 23:49:32;;;;;;;23.20;13.10;;;;;;;-1.25;86.49;99229.05;106798;1267;74082;-39
2023/01/15 23:51:59;;;;;;;27.80;15.30;;;;;;;-1.27;86.53;99229.71;106855;1268;60668;-39
2023/01/15 23:54:27;;;;;;;29.80;14.50;;;;;;;-1.35;86.92;99233.17;106806;1263;60034;-39
2023/01/15 23:56:55;;;;;;;24.20;12.80;;;;;;;-1.36;86.84;99223.02;106757;1262;73713;-39
2023/01/15 23:59:23;;;;;;;25.60;13.50;;;;;;;-1.30;86.70;99215.98;106840;1266;70144;-39
